Time;durP1;ratioP1;P1;durP2;ratioP2;P2;SDS_P1;SDS_P2;PMS_P1;PMS_P2;Temp;Humidity;BMP_temperature;BMP_pressure;BME280_temperature;BME280_humidity;BME280_pressure;Samples;Min_cycle;Max_cycle;Signal;HPM_P1;HPM_P2
2021/07/06 06:23:37;;;;;;;;;;;;;;;19.45;70.85;99838.56;5071322;28;1479;-61
2021/07/06 06:26:02;;;;;;;;;;;;;;;19.48;71.36;99834.66;5061035;28;1672;-62
2021/07/06 06:28:27;;;;;;;;;;;;;;;19.51;70.75;99842.44;5066449;28;1729;-63
2021/07/06 06:30:54;;;;;;;;;;;;;;;19.52;71.28;99833.31;5051857;28;1956;-62
2021/07/06 06:33:19;;;;;;;;;;;;;;;19.53;70.48;99838.50;5050802;28;785;-63
2021/07/06 06:35:44;;;;;;;;;;;;;;;19.50;70.96;99846.16;5052299;28;1071;-62
2021/07/06 06:38:09;;;;;;;;;;;;;;;19.50;70.28;99840.75;5050885;28;1222;-62
2021/07/06 06:40:34;;;;;;;;;;;;;;;19.54;70.88;99842.91;5052166;28;1849;-63
2021/07/06 06:43:00;;;;;;;;;;;;;;;19.52;70.86;99842.25;5057494;28;1910;-62
2021/07/06 06:45:25;;;;;;;;;;;;;;;19.54;71.04;99842.91;5060587;28;1788;-62
2021/07/06 06:47:50;;;;;;;;;;;;;;;19.55;71.12;99831.06;5061976;28;1633;-62
2021/07/06 06:50:15;;;;;;;;;;;;;;;19.56;70.31;99840.84;5059033;28;1742;-62
2021/07/06 06:52:41;;;;;;;;;;;;;;;19.57;70.72;99855.22;5061635;28;1824;-61
2021/07/06 06:55:06;;;;;;;;;;;;;;;19.59;70.17;99861.28;5061423;28;1466;-62
2021/07/06 06:57:31;;;;;;;;;;;;;;;19.60;70.16;99858.41;5059021;28;1409;-62
2021/07/06 06:59:56;;;;;;;;;;;;;;;19.57;69.71;99850.66;5068021;28;1422;-62
2021/07/06 07:02:21;;;;;;;;;;;;;;;19.57;70.10;99860.63;5054528;28;1898;-62
2021/07/06 07:04:46;;;;;;;;;;;;;;;19.52;70.56;99866.59;5071796;28;866;-62
2021/07/06 07:07:11;;;;;;;;;;;;;;;19.57;69.83;99869.56;5071690;28;960;-61
2021/07/06 07:09:36;;;;;;;;;;;;;;;19.61;69.46;99859.25;5056259;28;1631;-62
2021/07/06 07:12:01;;;;;;;;;;;;;;;19.63;69.53;99863.44;5063550;28;1493;-62
2021/07/06 07:14:26;;;;;;;;;;;;;;;19.62;70.13;99858.22;5053838;28;1518;-64
2021/07/06 07:16:51;;;;;;;;;;;;;;;19.61;70.09;99860.06;5053636;28;1376;-62
2021/07/06 07:19:17;;;;;;;;;;;;;;;19.64;68.97;99858.88;5058449;28;1566;-62
2021/07/06 07:21:42;;;;;;;;;;;;;;;19.66;68.94;99863.09;5062236;28;1918;-62
2021/07/06 07:24:07;;;;;;;;;;;;;;;19.68;69.23;99865.59;5071189;28;831;-62
2021/07/06 07:26:32;;;;;;;;;;;;;;;19.65;68.75;99864.09;5062122;28;1458;-62
2021/07/06 07:28:58;;;;;;;;;;;;;;;19.65;69.46;99860.56;5061746;28;1555;-62
2021/07/06 07:31:23;;;;;;;;;;;;;;;19.65;68.91;99874.06;5064887;28;1479;-62
2021/07/06 07:33:48;;;;;;;;;;;;;;;19.67;68.90;99869.34;5055607;28;1565;-62
2021/07/06 07:36:13;;;;;;;;;;;;;;;19.71;68.58;99865.22;5045407;28;1719;-62
2021/07/06 07:38:38;;;;;;;;;;;;;;;19.79;68.89;99867.88;5037672;28;1872;-62
2021/07/06 07:41:03;;;;;;;;;;;;;;;19.83;68.18;99873.75;5054021;28;1389;-62
2021/07/06 07:43:28;;;;;;;;;;;;;;;19.83;68.00;99866.47;5057160;28;1965;-62
2021/07/06 07:45:53;;;;;;;;;;;;;;;19.84;68.68;99875.44;5050057;28;1623;-62
2021/07/06 07:48:19;;;;;;;;;;;;;;;19.84;68.70;99875.44;5054649;28;1769;-63
2021/07/06 07:50:44;;;;;;;;;;;;;;;19.90;68.86;99869.28;5057254;28;1452;-61
2021/07/06 07:53:09;;;;;;;;;;;;;;;19.88;69.12;99864.06;5041754;28;1715;-61
2021/07/06 07:55:34;;;;;;;;;;;;;;;19.95;68.83;99873.13;5043953;28;1582;-61
2021/07/06 07:57:59;;;;;;;;;;;;;;;19.94;68.97;99870.59;5048800;28;1660;-62
2021/07/06 08:00:24;;;;;;;;;;;;;;;19.95;68.75;99872.28;5048584;28;1718;-62
2021/07/06 08:02:49;;;;;;;;;;;;;;;20.00;68.75;99877.97;5056459;28;1911;-62
2021/07/06 08:05:15;;;;;;;;;;;;;;;20.05;68.43;99879.13;5057588;28;865;-62
2021/07/06 08:07:40;;;;;;;;;;;;;;;20.08;69.19;99873.31;5055574;28;1892;-62
2021/07/06 08:10:06;;;;;;;;;;;;;;;20.16;68.01;99872.41;5036890;28;1574;-61
2021/07/06 08:12:31;;;;;;;;;;;;;;;20.19;69.05;99884.72;5036951;28;1748;-61
2021/07/06 08:14:57;;;;;;;;;;;;;;;20.18;68.33;99883.88;5036642;28;1645;-61
2021/07/06 08:17:22;;;;;;;;;;;;;;;20.24;68.74;99885.03;5036893;28;1548;-61
2021/07/06 08:19:49;;;;;;;;;;;;;;;20.27;68.86;99885.47;5036454;28;1559;-61
2021/07/06 08:22:14;;;;;;;;;;;;;;;20.24;69.48;99880.44;5037635;28;1981;-61
2021/07/06 08:24:39;;;;;;;;;;;;;;;20.24;68.22;99877.75;5044798;28;1729;-62
2021/07/06 08:27:04;;;;;;;;;;;;;;;20.24;68.74;99888.56;5036519;28;1634;-62
2021/07/06 08:29:31;;;;;;;;;;;;;;;20.24;68.60;99880.44;5037408;28;1890;-61
2021/07/06 08:31:56;;;;;;;;;;;;;;;20.25;68.18;99884.81;5036796;28;845;-62
2021/07/06 08:34:21;;;;;;;;;;;;;;;20.36;67.64;99876.28;5038799;28;1699;-62
2021/07/06 08:36:46;;;;;;;;;;;;;;;20.44;67.98;99875.31;5037242;28;1638;-61
2021/07/06 08:39:11;;;;;;;;;;;;;;;20.48;67.40;99884.75;5043143;28;1690;-62
2021/07/06 08:41:37;;;;;;;;;;;;;;;20.60;67.61;99895.97;5040510;28;1964;-61
2021/07/06 08:44:02;;;;;;;;;;;;;;;20.58;66.93;99898.88;5044883;28;1639;-62
2021/07/06 08:46:27;;;;;;;;;;;;;;;20.60;65.86;99909.50;5032865;28;2524;-62
2021/07/06 08:48:52;;;;;;;;;;;;;;;20.61;66.00;99909.28;5050556;28;1495;-61
2021/07/06 08:51:17;;;;;;;;;;;;;;;20.64;65.80;99921.63;5047149;28;2586;-62
2021/07/06 08:53:42;;;;;;;;;;;;;;;20.63;64.90;99937.03;5056332;28;1013;-62
2021/07/06 08:56:07;;;;;;;;;;;;;;;20.63;64.73;99922.66;5046016;28;1633;-62
2021/07/06 08:58:32;;;;;;;;;;;;;;;20.54;62.54;99921.91;5035893;28;2994;-62
2021/07/06 09:00:57;;;;;;;;;;;;;;;20.55;62.74;99928.16;5039500;28;1989;-62
2021/07/06 09:03:22;;;;;;;;;;;;;;;20.56;62.51;99932.56;5043160;28;1922;-62
2021/07/06 09:05:47;;;;;;;;;;;;;;;20.52;60.30;99933.94;5054612;28;1712;-61
2021/07/06 09:08:12;;;;;;;;;;;;;;;20.52;60.12;99942.06;5051168;28;1497;-61
2021/07/06 09:10:38;;;;;;;;;;;;;;;20.57;60.10;99937.78;5035784;28;1859;-62
2021/07/06 09:13:03;;;;;;;;;;;;;;;20.57;59.14;99931.53;5047123;28;1392;-62
2021/07/06 09:15:28;;;;;;;;;;;;;;;20.54;58.91;99937.31;5049533;28;1422;-60
2021/07/06 09:17:53;;;;;;;;;;;;;;;20.59;59.78;99927.63;5037230;28;1441;-63
2021/07/06 09:20:18;;;;;;;;;;;;;;;20.57;58.79;99934.25;5035751;28;997;-63
2021/07/06 09:22:43;;;;;;;;;;;;;;;20.54;59.82;99940.03;5037931;28;1901;-62
2021/07/06 09:25:08;;;;;;;;;;;;;;;20.52;58.90;99942.91;5048698;28;1931;-63
2021/07/06 09:27:33;;;;;;;;;;;;;;;20.55;60.02;99937.13;5061086;28;1514;-65
2021/07/06 09:29:58;;;;;;;;;;;;;;;20.69;59.23;99962.53;5044354;28;1436;-62
2021/07/06 09:32:23;;;;;;;;;;;;;;;20.59;57.71;99941.16;5049941;28;1627;-62
2021/07/06 09:34:48;;;;;;;;;;;;;;;20.68;58.40;99952.72;5042015;28;1461;-62
2021/07/06 09:37:14;;;;;;;;;;;;;;;20.59;56.52;99956.56;5048328;28;1443;-62
2021/07/06 09:39:39;;;;;;;;;;;;;;;20.66;57.09;99981.84;5052062;28;1655;-62
2021/07/06 09:42:04;;;;;;;;;;;;;;;20.62;58.80;99964.28;5037672;28;1918;-62
2021/07/06 09:44:29;;;;;;;;;;;;;;;20.57;56.66;99974.84;5040582;28;1594;-62
2021/07/06 09:46:54;;;;;;;;;;;;;;;20.59;58.21;99975.50;5036874;28;1628;-62
2021/07/06 09:49:19;;;;;;;;;;;;;;;20.68;57.09;99971.66;5049057;28;1566;-62
2021/07/06 09:51:44;;;;;;;;;;;;;;;20.59;57.11;99978.22;5043282;28;3365;-62
2021/07/06 09:54:09;;;;;;;;;;;;;;;20.60;56.04;99983.41;5033984;28;2327;-62
2021/07/06 09:56:34;;;;;;;;;;;;;;;20.60;56.41;99979.91;5033491;28;1890;-62
2021/07/06 09:59:00;;;;;;;;;;;;;;;20.59;55.87;99987.19;5046121;28;1448;-62
2021/07/06 10:01:25;;;;;;;;;;;;;;;20.60;55.94;99985.31;5040474;28;1894;-62
2021/07/06 10:03:51;;;;;;;;;;;;;;;20.60;55.64;99988.03;5037286;28;1442;-62
2021/07/06 10:06:16;;;;;;;;;;;;;;;20.61;57.38;99990.50;5040135;28;1411;-62
2021/07/06 10:08:41;;;;;;;;;;;;;;;20.59;57.62;100005.28;5046288;28;1672;-62
2021/07/06 10:11:06;;;;;;;;;;;;;;;20.60;56.94;100004.25;5035065;28;1378;-62
2021/07/06 10:13:31;;;;;;;;;;;;;;;20.63;56.42;100001.16;5043287;28;1673;-62
2021/07/06 10:15:56;;;;;;;;;;;;;;;20.65;55.69;100004.53;5038752;28;1631;-62
2021/07/06 10:18:21;;;;;;;;;;;;;;;20.57;55.41;100024.41;5049135;28;1611;-63
2021/07/06 10:20:46;;;;;;;;;;;;;;;20.59;56.58;100011.53;5044571;28;1500;-62
2021/07/06 10:23:11;;;;;;;;;;;;;;;20.60;56.06;100025.91;5041545;28;1898;-64
2021/07/06 10:25:37;;;;;;;;;;;;;;;20.60;54.90;100025.91;5033658;28;2020;-62
2021/07/06 10:28:02;;;;;;;;;;;;;;;20.58;56.46;100017.13;5044247;28;1690;-62
2021/07/06 10:30:27;;;;;;;;;;;;;;;20.57;56.15;100019.00;5034472;28;1845;-62
2021/07/06 10:32:52;;;;;;;;;;;;;;;20.59;55.35;100018.81;5034886;28;1545;-62
2021/07/06 10:35:17;;;;;;;;;;;;;;;20.58;55.27;100020.69;5047481;28;1466;-63
2021/07/06 10:37:42;;;;;;;;;;;;;;;20.58;55.40;100025.25;5034687;28;2718;-62
2021/07/06 10:40:07;;;;;;;;;;;;;;;20.59;55.24;100016.13;5036366;28;1541;-62
2021/07/06 10:42:33;;;;;;;;;;;;;;;20.60;55.79;100021.31;5034233;28;1898;-62
2021/07/06 10:44:58;;;;;;;;;;;;;;;20.64;56.13;100038.03;5037913;28;1669;-62
2021/07/06 10:47:23;;;;;;;;;;;;;;;20.65;54.96;100031.59;5034537;28;1541;-62
2021/07/06 10:49:48;;;;;;;;;;;;;;;20.70;55.58;100024.63;5035692;28;1857;-63
2021/07/06 10:52:13;;;;;;;;;;;;;;;20.66;53.58;100049.53;5035394;28;1510;-62
2021/07/06 10:54:38;;;;;;;;;;;;;;;20.64;53.97;100035.34;5034423;28;1646;-62
2021/07/06 10:57:03;;;;;;;;;;;;;;;20.63;54.04;100039.06;5034053;28;1523;-62
2021/07/06 10:59:28;;;;;;;;;;;;;;;20.63;53.44;100039.06;5033933;28;1588;-62
2021/07/06 11:01:57;;;;;;;;;;;;;;;20.66;54.93;100038.69;5047042;28;1957;-61
2021/07/06 11:04:22;;;;;;;;;;;;;;;20.64;53.57;100036.19;5036464;28;1601;-62
2021/07/06 11:06:47;;;;;;;;;;;;;;;20.71;54.42;100041.72;5034028;28;1737;-62
2021/07/06 11:09:12;;;;;;;;;;;;;;;20.72;54.19;100048.81;5045945;28;1444;-62
2021/07/06 11:11:37;;;;;;;;;;;;;;;20.72;54.63;100041.53;5039794;28;1540;-62
2021/07/06 11:14:02;;;;;;;;;;;;;;;20.70;53.75;100046.28;5039936;28;2006;-63
2021/07/06 11:16:27;;;;;;;;;;;;;;;20.71;53.13;100047.13;5038242;28;1810;-64
2021/07/06 11:18:52;;;;;;;;;;;;;;;20.68;53.43;100052.91;5035449;28;1570;-63
2021/07/06 11:21:17;;;;;;;;;;;;;;;20.69;52.81;100062.72;5036834;28;1484;-62
2021/07/06 11:23:42;;;;;;;;;;;;;;;20.71;53.63;100055.25;5037463;28;1953;-62
2021/07/06 11:26:10;;;;;;;;;;;;;;;20.74;54.91;100049.47;5037293;28;1562;-62
2021/07/06 11:28:35;;;;;;;;;;;;;;;20.74;54.29;100058.44;5036350;28;1653;-62
2021/07/06 11:31:00;;;;;;;;;;;;;;;20.71;54.74;100057.94;5041830;28;1640;-62
2021/07/06 11:33:25;;;;;;;;;;;;;;;20.68;53.67;100066.44;5040562;28;2721;-63
2021/07/06 11:35:50;;;;;;;;;;;;;;;20.70;54.59;100067.09;5037294;28;1616;-62
2021/07/06 11:38:16;;;;;;;;;;;;;;;20.69;54.78;100063.56;5037230;28;1672;-62
2021/07/06 11:40:41;;;;;;;;;;;;;;;20.70;53.41;100067.94;5036897;28;1592;-63
2021/07/06 11:43:06;;;;;;;;;;;;;;;20.74;52.86;100061.13;5036902;28;1906;-62
2021/07/06 11:45:31;;;;;;;;;;;;;;;20.73;54.30;100069.44;5037090;28;1555;-62
2021/07/06 11:47:56;;;;;;;;;;;;;;;20.72;54.41;100071.31;5036800;28;1640;-62
2021/07/06 11:50:21;;;;;;;;;;;;;;;20.78;53.75;100067.03;5036457;28;1633;-62
2021/07/06 11:52:46;;;;;;;;;;;;;;;20.76;53.76;100074.50;5036784;28;1692;-62
2021/07/06 11:55:11;;;;;;;;;;;;;;;20.77;53.22;100076.19;5036535;28;1634;-63
2021/07/06 11:57:36;;;;;;;;;;;;;;;20.75;53.77;100087.19;5036723;28;1422;-62
2021/07/06 12:00:01;;;;;;;;;;;;;;;20.77;53.30;100087.84;5037189;28;1733;-62
2021/07/06 12:02:26;;;;;;;;;;;;;;;20.75;53.36;100087.19;5037425;28;1898;-62
2021/07/06 12:04:51;;;;;;;;;;;;;;;20.74;54.13;100088.22;5037617;28;1875;-62
2021/07/06 12:07:17;;;;;;;;;;;;;;;20.72;53.33;100092.13;5032253;28;1557;-62
2021/07/06 12:09:42;;;;;;;;;;;;;;;20.71;53.97;100093.16;5053542;28;1638;-62
2021/07/06 12:12:07;;;;;;;;;;;;;;;20.68;54.63;100112.47;5040927;28;1544;-62
2021/07/06 12:14:32;;;;;;;;;;;;;;;20.65;54.98;100092.00;5049786;28;1705;-63
2021/07/06 12:16:59;;;;;;;;;;;;;;;20.65;53.49;100118.25;5047497;28;1525;-62
2021/07/06 12:19:24;;;;;;;;;;;;;;;20.62;53.23;100097.78;5056707;28;881;-63
2021/07/06 12:21:51;;;;;;;;;;;;;;;20.59;54.38;100124.41;5038645;28;1960;-62
2021/07/06 12:24:16;;;;;;;;;;;;;;;20.56;53.45;100141.00;5043421;28;1848;-62
2021/07/06 12:26:41;;;;;;;;;;;;;;;20.57;53.53;100111.03;5040764;28;1880;-64
2021/07/06 12:29:06;;;;;;;;;;;;;;;20.58;53.37;100120.00;5035443;28;1617;-63
2021/07/06 12:31:31;;;;;;;;;;;;;;;20.59;53.72;100119.84;5037884;28;1905;-63
2021/07/06 12:33:56;;;;;;;;;;;;;;;20.60;54.02;100126.09;5043066;28;1661;-63
2021/07/06 12:36:21;;;;;;;;;;;;;;;20.65;54.14;100138.03;5047272;28;1597;-63
2021/07/06 12:38:47;;;;;;;;;;;;;;;20.69;54.33;100141.22;5043258;28;1842;-62
2021/07/06 12:41:12;;;;;;;;;;;;;;;20.67;54.14;100143.28;5046082;28;1965;-62
2021/07/06 12:43:37;;;;;;;;;;;;;;;20.65;54.34;100150.72;5045900;28;1902;-63
2021/07/06 12:46:02;;;;;;;;;;;;;;;20.66;54.99;100152.41;5047168;28;1899;-62
2021/07/06 12:48:27;;;;;;;;;;;;;;;20.66;54.48;100147.84;5036669;28;1025;-61
2021/07/06 12:50:52;;;;;;;;;;;;;;;20.68;54.62;100162.03;5035980;28;1524;-63
2021/07/06 12:53:17;;;;;;;;;;;;;;;20.65;54.25;100161.56;5036667;28;1013;-61
2021/07/06 12:55:42;;;;;;;;;;;;;;;20.69;54.98;100155.59;5047235;28;1668;-62
2021/07/06 12:58:07;;;;;;;;;;;;;;;20.71;54.32;100166.25;5036457;28;1736;-62
2021/07/06 13:00:33;;;;;;;;;;;;;;;20.72;53.46;100167.94;5035807;28;1543;-62
2021/07/06 13:02:58;;;;;;;;;;;;;;;20.72;54.73;100162.53;5034390;28;1994;-62
2021/07/06 13:05:24;;;;;;;;;;;;;;;20.70;53.55;100175.41;5035821;28;1563;-62
2021/07/06 13:07:49;;;;;;;;;;;;;;;20.71;54.14;100174.38;5035788;28;1623;-62
2021/07/06 13:10:16;;;;;;;;;;;;;;;20.71;53.90;100168.97;5035564;28;1744;-62
2021/07/06 13:12:41;;;;;;;;;;;;;;;20.66;53.40;100179.50;5035387;28;1599;-63
2021/07/06 13:15:06;;;;;;;;;;;;;;;20.72;54.03;100189.63;5035744;28;1855;-62
2021/07/06 13:17:31;;;;;;;;;;;;;;;20.72;54.53;100186.91;5036153;28;1503;-62
2021/07/06 13:19:56;;;;;;;;;;;;;;;20.68;55.07;100191.84;5035219;28;1548;-62
2021/07/06 13:22:21;;;;;;;;;;;;;;;20.71;54.72;100194.19;5035133;28;1902;-62
2021/07/06 13:24:47;;;;;;;;;;;;;;;20.69;55.14;100206.22;5036053;28;1028;-62
2021/07/06 13:27:12;;;;;;;;;;;;;;;20.68;55.25;100212.66;5036035;28;935;-61
2021/07/06 13:29:37;;;;;;;;;;;;;;;20.65;54.95;100194.06;5035586;28;1988;-62
2021/07/06 13:32:02;;;;;;;;;;;;;;;20.63;54.12;100207.78;5035226;28;1883;-62
2021/07/06 13:34:27;;;;;;;;;;;;;;;20.63;54.90;100215.03;5035539;28;1665;-61
2021/07/06 13:36:52;;;;;;;;;;;;;;;20.60;54.12;100207.31;5035796;28;1024;-61
2021/07/06 13:39:17;;;;;;;;;;;;;;;20.61;53.81;100220.63;5034160;28;1932;-62
2021/07/06 13:41:42;;;;;;;;;;;;;;;20.65;54.80;100221.13;5035639;28;1968;-61
2021/07/06 13:44:07;;;;;;;;;;;;;;;20.70;55.30;100210.59;5035232;28;1429;-61
2021/07/06 13:46:32;;;;;;;;;;;;;;;20.70;54.05;100225.00;5034876;28;1703;-62
2021/07/06 13:48:59;;;;;;;;;;;;;;;20.73;54.88;100231.91;5035046;28;1473;-63
2021/07/06 13:51:24;;;;;;;;;;;;;;;20.75;54.30;100238.00;5038234;28;1644;-63
2021/07/06 13:53:51;;;;;;;;;;;;;;;20.71;54.32;100240.22;5034420;28;1736;-63
2021/07/06 13:56:16;;;;;;;;;;;;;;;20.68;54.41;100227.03;5034456;28;1576;-62
2021/07/06 13:58:41;;;;;;;;;;;;;;;20.71;54.42;100223.13;5035581;28;1650;-63
2021/07/06 14:01:08;;;;;;;;;;;;;;;20.71;55.06;100231.25;5035682;28;1478;-62
2021/07/06 14:03:33;;;;;;;;;;;;;;;20.77;54.73;100227.84;5035365;28;1957;-62
2021/07/06 14:05:58;;;;;;;;;;;;;;;20.77;54.65;100242.22;5035033;28;1843;-62
2021/07/06 14:08:23;;;;;;;;;;;;;;;20.77;54.80;100246.78;5035417;28;1009;-62
2021/07/06 14:10:48;;;;;;;;;;;;;;;20.78;54.26;100234.94;5035587;28;1453;-62
2021/07/06 14:13:14;;;;;;;;;;;;;;;20.77;55.00;100246.78;5035158;28;897;-62
2021/07/06 14:15:39;;;;;;;;;;;;;;;20.76;54.59;100245.94;5034523;28;1591;-63
2021/07/06 14:18:04;;;;;;;;;;;;;;;20.75;54.88;100248.84;5034615;28;1544;-62
2021/07/06 14:20:29;;;;;;;;;;;;;;;20.75;54.87;100255.09;5034694;28;1694;-62
2021/07/06 14:22:54;;;;;;;;;;;;;;;20.75;55.49;100260.50;5034979;28;1895;-62
2021/07/06 14:25:19;;;;;;;;;;;;;;;20.73;55.21;100267.13;5035301;28;996;-62
2021/07/06 14:27:44;;;;;;;;;;;;;;;20.72;55.26;100284.38;5035045;28;922;-62
2021/07/06 14:30:09;;;;;;;;;;;;;;;20.68;55.88;100332.63;5034500;28;1685;-63
2021/07/06 14:32:38;;;;;;;;;;;;;;;20.60;56.43;100348.09;5035227;28;815;-62
2021/07/06 14:35:03;;;;;;;;;;;;;;;20.45;58.55;100340.69;5040923;28;1521;-62
2021/07/06 14:37:28;;;;;;;;;;;;;;;20.41;58.53;100341.25;5034732;28;910;-62
2021/07/06 14:39:53;;;;;;;;;;;;;;;20.43;59.69;100331.91;5034894;28;1734;-61
2021/07/06 14:42:18;;;;;;;;;;;;;;;20.55;58.94;100324.25;5034715;28;1969;-61
2021/07/06 14:44:43;;;;;;;;;;;;;;;20.61;58.40;100328.09;5037029;28;1599;-62
2021/07/06 14:47:08;;;;;;;;;;;;;;;20.59;59.69;100328.28;5037733;28;1368;-62
2021/07/06 14:49:33;;;;;;;;;;;;;;;20.62;59.49;100327.06;5037551;28;1718;-61
2021/07/06 14:51:59;;;;;;;;;;;;;;;20.62;59.62;100337.91;5037970;28;1640;-62
2021/07/06 14:54:24;;;;;;;;;;;;;;;20.67;59.08;100339.06;5038343;28;1803;-61
2021/07/06 14:56:49;;;;;;;;;;;;;;;20.66;59.84;100344.66;5038038;28;1556;-62
2021/07/06 14:59:14;;;;;;;;;;;;;;;20.71;59.75;100345.81;5037665;28;1638;-62
2021/07/06 15:01:39;;;;;;;;;;;;;;;20.75;59.46;100349.03;5038109;28;1957;-63
2021/07/06 15:04:05;;;;;;;;;;;;;;;20.75;59.20;100340.91;5037879;28;1621;-62
2021/07/06 15:06:30;;;;;;;;;;;;;;;20.72;59.51;100346.66;5039165;28;1584;-62
2021/07/06 15:08:55;;;;;;;;;;;;;;;20.74;59.74;100350.03;5038146;28;1816;-60
2021/07/06 15:11:20;;;;;;;;;;;;;;;20.76;59.85;100342.59;5038205;28;1505;-64
2021/07/06 15:13:45;;;;;;;;;;;;;;;20.76;60.47;100351.56;5029050;28;2268;-62
2021/07/06 15:16:10;;;;;;;;;;;;;;;20.77;59.97;100357.81;5022195;28;1768;-61
2021/07/06 15:18:35;;;;;;;;;;;;;;;20.77;60.38;100352.41;5018556;28;1936;-61
2021/07/06 15:21:00;;;;;;;;;;;;;;;20.73;60.50;100349.19;5024552;28;1963;-61
2021/07/06 15:23:26;;;;;;;;;;;;;;;20.74;60.23;100345.47;5024894;28;1898;-59
2021/07/06 15:25:51;;;;;;;;;;;;;;;20.77;60.59;100347.00;5022409;28;1776;-60
2021/07/06 15:28:16;;;;;;;;;;;;;;;20.74;59.81;100348.19;5017277;28;1850;-59
2021/07/06 15:30:41;;;;;;;;;;;;;;;20.73;60.41;100353.78;5023008;28;1805;-60
2021/07/06 15:33:06;;;;;;;;;;;;;;;20.77;60.68;100352.41;5021355;28;1535;-60
2021/07/06 15:35:32;;;;;;;;;;;;;;;20.77;60.64;100350.53;5032121;28;1898;-61
2021/07/06 15:37:57;;;;;;;;;;;;;;;20.77;60.73;100361.38;5030892;28;1571;-61
2021/07/06 15:40:22;;;;;;;;;;;;;;;20.76;59.94;100353.44;5021375;28;1882;-60
2021/07/06 15:42:47;;;;;;;;;;;;;;;20.78;60.28;100356.81;5034309;28;2068;-60
2021/07/06 15:45:12;;;;;;;;;;;;;;;20.79;59.83;100340.34;5025869;28;1761;-61
2021/07/06 15:47:37;;;;;;;;;;;;;;;20.81;60.82;100359.13;5033973;28;1749;-61
2021/07/06 15:50:02;;;;;;;;;;;;;;;20.78;59.97;100346.78;5026029;28;2070;-60
2021/07/06 15:52:27;;;;;;;;;;;;;;;20.78;60.91;100348.69;5037914;28;1675;-60
2021/07/06 15:54:52;;;;;;;;;;;;;;;20.79;60.98;100359.31;5037981;28;1625;-60
2021/07/06 15:57:17;;;;;;;;;;;;;;;20.83;61.58;100359.81;5036443;28;1658;-60
2021/07/06 15:59:42;;;;;;;;;;;;;;;20.83;60.98;100353.53;5033881;28;2137;-61
2021/07/06 16:02:07;;;;;;;;;;;;;;;20.83;61.55;100365.22;5036774;28;1897;-61
2021/07/06 16:04:35;;;;;;;;;;;;;;;20.84;61.30;100366.06;5029378;28;1574;-60
2021/07/06 16:07:00;;;;;;;;;;;;;;;20.82;61.55;100385.19;5034731;28;1500;-60
2021/07/06 16:09:25;;;;;;;;;;;;;;;20.75;59.92;100379.66;5037157;28;1781;-61
2021/07/06 16:11:50;;;;;;;;;;;;;;;20.72;60.98;100385.44;5037108;28;1737;-60
2021/07/06 16:14:15;;;;;;;;;;;;;;;20.72;60.21;100395.41;5035816;28;1574;-61
2021/07/06 16:16:40;;;;;;;;;;;;;;;20.71;60.05;100386.44;5023854;28;1883;-60
2021/07/06 16:19:05;;;;;;;;;;;;;;;20.71;60.22;100391.00;5030769;28;1610;-60
2021/07/06 16:21:30;;;;;;;;;;;;;;;20.70;60.67;100392.88;5018933;28;1716;-60
2021/07/06 16:23:55;;;;;;;;;;;;;;;20.72;60.52;100400.81;5029986;28;1948;-60
2021/07/06 16:26:21;;;;;;;;;;;;;;;20.74;61.24;100404.22;5022272;28;1668;-59
2021/07/06 16:28:46;;;;;;;;;;;;;;;20.74;62.31;100401.50;5027793;28;1732;-60
2021/07/06 16:31:11;;;;;;;;;;;;;;;20.72;62.06;100401.69;5034444;28;1757;-60
2021/07/06 16:33:36;;;;;;;;;;;;;;;20.71;63.80;100394.56;5034931;28;1671;-61
2021/07/06 16:36:01;;;;;;;;;;;;;;;20.73;62.04;100399.81;5036000;28;1589;-59
2021/07/06 16:38:26;;;;;;;;;;;;;;;20.76;62.75;100402.16;5035323;28;1709;-59
2021/07/06 16:40:51;;;;;;;;;;;;;;;20.81;63.01;100399.75;5033189;28;1637;-58
2021/07/06 16:43:16;;;;;;;;;;;;;;;20.88;62.50;100395.34;5033099;28;1914;-59
2021/07/06 16:45:43;;;;;;;;;;;;;;;20.90;62.55;100398.72;5034230;28;1598;-60
2021/07/06 16:48:10;;;;;;;;;;;;;;;20.91;62.12;100399.56;5036223;28;1534;-60
2021/07/06 16:50:35;;;;;;;;;;;;;;;20.88;61.89;100395.34;5035644;28;1584;-60
2021/07/06 17:59:30;;;;;;;;;;;;;;;20.55;54.83;100524.59;4954422;29;2611;-59
2021/07/06 18:04:39;;;;;;;;;;;;;;;20.56;55.10;100530.84;4993187;28;1464;-58
2021/07/06 18:07:04;;;;;;;;;;;;;;;20.51;54.54;100533.22;5034022;28;1838;-59
2021/07/06 18:09:30;;;;;;;;;;;;;;;20.48;55.23;100538.97;5030824;28;1969;-58
2021/07/06 18:11:55;;;;;;;;;;;;;;;20.43;54.03;100548.44;5026187;28;1456;-60
2021/07/06 18:14:20;;;;;;;;;;;;;;;20.43;55.22;100543.03;5021568;28;1633;-59
2021/07/06 18:16:45;;;;;;;;;;;;;;;20.39;54.71;100540.84;5020244;28;1619;-59
2021/07/06 18:19:10;;;;;;;;;;;;;;;20.37;55.77;100554.56;5016587;28;1645;-58
2021/07/06 18:21:35;;;;;;;;;;;;;;;20.35;54.88;100543.00;5018696;28;1771;-59
2021/07/06 18:24:00;;;;;;;;;;;;;;;20.37;55.10;100554.56;5016287;28;1894;-58
2021/07/06 18:26:26;;;;;;;;;;;;;;;20.35;54.59;100567.38;5017972;28;1830;-58
2021/07/06 18:28:51;;;;;;;;;;;;;;;20.31;54.84;100557.91;5015530;28;1683;-58
2021/07/06 18:31:16;;;;;;;;;;;;;;;20.31;55.00;100560.59;5015256;28;1740;-58
2021/07/06 18:33:41;;;;;;;;;;;;;;;20.29;54.49;100570.75;5016646;28;1766;-58
2021/07/06 18:36:06;;;;;;;;;;;;;;;20.24;54.72;100570.44;5017418;28;1734;-59
2021/07/06 18:38:31;;;;;;;;;;;;;;;20.19;54.66;100572.78;5014750;28;1601;-59
2021/07/06 18:40:56;;;;;;;;;;;;;;;20.23;54.09;100584.97;5014595;28;2322;-59
2021/07/06 18:43:24;;;;;;;;;;;;;;;20.24;55.32;100575.84;5017307;28;1903;-59
2021/07/06 18:45:49;;;;;;;;;;;;;;;20.31;54.51;100584.97;5015690;28;1601;-59
2021/07/06 18:48:16;;;;;;;;;;;;;;;20.30;54.45;100585.97;5015498;28;1575;-59
2021/07/06 18:50:41;;;;;;;;;;;;;;;20.31;55.26;100582.25;5016427;28;1767;-58
2021/07/06 18:53:06;;;;;;;;;;;;;;;20.28;54.83;100585.28;5018804;28;1703;-59
2021/07/06 18:55:31;;;;;;;;;;;;;;;20.29;55.82;100586.97;5017879;28;1692;-59
2021/07/06 18:57:56;;;;;;;;;;;;;;;20.34;55.29;100587.34;5017612;28;1935;-59
2021/07/06 19:00:21;;;;;;;;;;;;;;;20.39;55.21;100587.72;5022397;28;1612;-59
2021/07/06 19:02:49;;;;;;;;;;;;;;;20.38;54.63;100596.84;5017295;28;1891;-59
2021/07/06 19:05:15;;;;;;;;;;;;;;;20.41;55.46;100596.50;5021608;28;1806;-60
2021/07/06 19:07:42;;;;;;;;;;;;;;;20.41;55.04;100603.78;5022039;28;1966;-59
2021/07/06 19:10:07;;;;;;;;;;;;;;;20.32;54.88;100597.47;5021953;28;1642;-60
2021/07/06 19:12:32;;;;;;;;;;;;;;;20.36;54.54;100609.69;5028613;28;1581;-60
2021/07/06 19:14:57;;;;;;;;;;;;;;;20.31;54.93;100609.31;5031201;28;1617;-59
2021/07/06 19:17:22;;;;;;;;;;;;;;;20.32;55.67;100610.16;5032146;28;1645;-59
2021/07/06 19:19:47;;;;;;;;;;;;;;;20.34;55.56;100610.84;5031793;28;1836;-59
2021/07/06 19:22:12;;;;;;;;;;;;;;;20.30;55.42;100612.19;5033143;28;2029;-59
2021/07/06 19:24:39;;;;;;;;;;;;;;;20.25;55.28;100612.69;5032267;28;2197;-58
2021/07/06 19:27:04;;;;;;;;;;;;;;;20.21;56.12;100616.75;5033660;28;1612;-59
2021/07/06 19:32:15;;;;;;;;;;;;;;;20.20;55.00;100630.47;5034937;28;1513;-59
2021/07/06 19:34:40;;;;;;;;;;;;;;;20.21;56.15;100641.13;5032432;28;1529;-59
2021/07/06 19:37:05;;;;;;;;;;;;;;;20.24;55.32;100635.38;5033563;28;1691;-59
2021/07/06 19:39:30;;;;;;;;;;;;;;;20.26;56.17;100643.31;5030962;28;2077;-59
2021/07/06 19:41:55;;;;;;;;;;;;;;;20.26;55.76;100638.72;5036471;28;1965;-59
2021/07/06 19:44:20;;;;;;;;;;;;;;;20.25;56.61;100641.59;5037261;28;1657;-59
2021/07/06 19:46:46;;;;;;;;;;;;;;;20.24;56.56;100651.63;5024253;28;1644;-59
2021/07/06 19:49:11;;;;;;;;;;;;;;;20.25;55.52;100653.28;5017920;28;1708;-59
2021/07/06 19:51:36;;;;;;;;;;;;;;;20.23;55.98;100654.47;5033766;28;1719;-59
2021/07/06 19:54:01;;;;;;;;;;;;;;;20.23;56.98;100655.34;5032558;28;1646;-59
2021/07/06 19:56:26;;;;;;;;;;;;;;;20.24;55.83;100661.59;5034040;28;1709;-59
2021/07/06 19:58:51;;;;;;;;;;;;;;;20.21;56.63;100662.75;5037134;28;2050;-59
2021/07/06 20:01:17;;;;;;;;;;;;;;;20.18;55.89;100665.78;5037128;28;1714;-58
2021/07/06 20:03:42;;;;;;;;;;;;;;;20.10;56.16;100669.31;5037056;28;1898;-59
2021/07/06 20:06:07;;;;;;;;;;;;;;;20.10;56.29;100672.03;5037117;28;1767;-59
2021/07/06 20:08:32;;;;;;;;;;;;;;;20.14;56.87;100672.53;5037204;28;1601;-59
2021/07/06 20:10:57;;;;;;;;;;;;;;;20.17;56.61;100677.63;5033849;28;1728;-58
2021/07/06 20:13:22;;;;;;;;;;;;;;;20.18;56.90;100684.75;5033532;28;1483;-59